Main page
METAR-TAF:

METAR-TAF

Airports :

Balıkesir Koca Seyit Airport

Edremit, Turkey

latitude: 39-33-16N, longitude: 27-00-49E, elevation: 15 m

Current weather observation

The report was made 41 minutes ago, at 04:50 UTC
Wind 15 kt from the East/Northeast
Temperature 21°C
Humidity 64%
Pressure 1015 hPa
Visibility 10 km or more
Few clouds at a height of 3500 ft
Scattered clouds at a height of 10000 ft

METAR: LTFD 210450Z 06015KT 9999 FEW035 SCT100 21/14 Q1015

Time: 08:31 (05:31 UTC)

Forecast

The report was made 3 hours and 51 minutes ago, at 01:40 UTC
Forecast valid from 21 at 03 UTC to 21 at 12 UTC
Wind 12 kt from the East/Northeast
Visibility 10 km or more
Few clouds at a height of 3500 ft
Scattered clouds at a height of 20000 ft

TAF: LTFD 210140Z 2103/2112 06012KT 9999 FEW035 SCT200

Weather observations and forecasts of more than 4000 airports (METAR and TAF reports).

The available stations are represented by yellow and red dots on the map.

Hover mouse over dot to see the name of the station.

Then click to see weather observations and forecasts.

To change the map : click on the green buttons with a black cross to zoom in, on the green button with a dash to zoom out, or on the green arrows for adjacent maps.


METAR-TAF: